Time;durP1;ratioP1;P1;durP2;ratioP2;P2;SDS_P1;SDS_P2;PMS_P1;PMS_P2;Temp;Humidity;BMP_temperature;BMP_pressure;BME280_temperature;BME280_humidity;BME280_pressure;Samples;Min_cycle;Max_cycle;Signal;HPM_P1;HPM_P2
2024/01/13 00:00:59;;;;;;;37.40;31.58;;;;;;;;;;10183955;28;20458;-74
2024/01/13 00:05:51;;;;;;;40.03;32.33;;;;;;;;;;10180630;28;20040;-75
2024/01/13 00:10:43;;;;;;;45.53;33.35;;;;;;;;;;10144964;28;20099;-75
2024/01/13 00:15:36;;;;;;;44.38;31.52;;;;;;;;;;10143850;28;20049;-75
2024/01/13 00:20:27;;;;;;;46.13;34.00;;;;;;;;;;10144751;28;20048;-75
2024/01/13 00:25:20;;;;;;;39.35;31.92;;;;;;;;;;10146144;28;20104;-75
2024/01/13 00:30:12;;;;;;;38.28;28.70;;;;;;;;;;10145172;28;20071;-74
2024/01/13 00:35:04;;;;;;;37.25;27.98;;;;;;;;;;10143449;28;20049;-75
2024/01/13 00:39:56;;;;;;;36.08;28.38;;;;;;;;;;10144817;28;20056;-75
2024/01/13 00:44:48;;;;;;;37.15;28.23;;;;;;;;;;10143296;28;20411;-75
2024/01/13 00:49:40;;;;;;;40.63;31.55;;;;;;;;;;10145141;28;20064;-75
2024/01/13 00:54:32;;;;;;;37.10;28.83;;;;;;;;;;10144480;28;20076;-75
2024/01/13 00:59:24;;;;;;;35.25;26.58;;;;;;;;;;10145458;28;20036;-75
2024/01/13 01:04:16;;;;;;;35.20;25.42;;;;;;;;;;10142222;28;20048;-75
2024/01/13 01:09:08;;;;;;;27.90;22.45;;;;;;;;;;10144748;28;20052;-74
2024/01/13 01:14:01;;;;;;;30.00;25.25;;;;;;;;;;10143914;28;20052;-75
2024/01/13 01:18:53;;;;;;;32.58;24.65;;;;;;;;;;10145081;28;20042;-74
2024/01/13 01:23:46;;;;;;;34.78;26.50;;;;;;;;;;10143607;28;20044;-75
2024/01/13 01:28:39;;;;;;;37.88;27.25;;;;;;;;;;10150418;28;20043;-75
2024/01/13 01:33:31;;;;;;;36.25;28.67;;;;;;;;;;10150174;28;20086;-75
2024/01/13 01:38:23;;;;;;;35.97;27.08;;;;;;;;;;10152383;28;20060;-73
2024/01/13 01:43:32;;;;;;;43.35;31.98;;;;;;;;;;10150979;28;20135;-74
2024/01/13 01:48:27;;;;;;;41.92;32.67;;;;;;;;;;10151085;28;20044;-74
2024/01/13 01:53:30;;;;;;;45.03;35.70;;;;;;;;;;10150508;28;20044;-74
2024/01/13 01:58:22;;;;;;;48.47;37.58;;;;;;;;;;10151923;28;20040;-75
2024/01/13 02:03:22;;;;;;;44.78;32.45;;;;;;;;;;10148910;28;20044;-75
2024/01/13 02:08:15;;;;;;;42.17;33.60;;;;;;;;;;10150102;28;20360;-76
2024/01/13 02:13:22;;;;;;;43.40;31.50;;;;;;;;;;10147768;28;20044;-75
2024/01/13 02:18:14;;;;;;;41.22;31.50;;;;;;;;;;10150033;28;20070;-75
2024/01/13 02:23:22;;;;;;;39.70;32.28;;;;;;;;;;10149769;28;20052;-75
2024/01/13 02:28:16;;;;;;;43.85;34.97;;;;;;;;;;10149663;28;20048;-76
2024/01/13 02:33:26;;;;;;;42.22;35.63;;;;;;;;;;10148919;28;20045;-75
2024/01/13 02:38:18;;;;;;;48.15;34.75;;;;;;;;;;10148508;28;20044;-75
2024/01/13 02:43:25;;;;;;;52.25;39.17;;;;;;;;;;10147775;28;20044;-75
2024/01/13 02:48:17;;;;;;;54.35;40.33;;;;;;;;;;10148380;28;20036;-75
2024/01/13 02:53:25;;;;;;;52.70;40.20;;;;;;;;;;10146804;28;20055;-75
2024/01/13 02:58:17;;;;;;;52.72;42.63;;;;;;;;;;10149020;28;20045;-75
2024/01/13 03:03:27;;;;;;;53.08;41.92;;;;;;;;;;10147470;28;20052;-75
2024/01/13 03:08:21;;;;;;;51.03;39.72;;;;;;;;;;10147328;28;20139;-75
2024/01/13 03:13:28;;;;;;;54.72;41.95;;;;;;;;;;10156011;28;20036;-75
2024/01/13 03:18:20;;;;;;;52.75;40.90;;;;;;;;;;10147395;28;20102;-75
2024/01/13 03:23:24;;;;;;;53.03;42.10;;;;;;;;;;10146511;28;20106;-76
2024/01/13 03:28:16;;;;;;;60.75;43.08;;;;;;;;;;10148192;28;20127;-74
2024/01/13 03:33:21;;;;;;;57.65;42.50;;;;;;;;;;10146864;28;20079;-75
2024/01/13 03:38:13;;;;;;;57.15;44.42;;;;;;;;;;10147142;28;20067;-74
2024/01/13 03:43:22;;;;;;;55.72;42.50;;;;;;;;;;10145943;28;20151;-75
2024/01/13 03:48:14;;;;;;;49.08;38.63;;;;;;;;;;10149284;28;20037;-74
2024/01/13 03:53:07;;;;;;;51.10;42.08;;;;;;;;;;10137952;28;20086;-74
2024/01/13 03:57:59;;;;;;;64.88;42.92;;;;;;;;;;10174610;28;20359;-74
2024/01/13 04:02:51;;;;;;;52.42;40.97;;;;;;;;;;10184267;28;20393;-74
2024/01/13 04:07:43;;;;;;;49.60;39.10;;;;;;;;;;10183622;28;20141;-74
2024/01/13 04:12:35;;;;;;;45.75;37.80;;;;;;;;;;10184244;28;20044;-74
2024/01/13 04:17:27;;;;;;;47.13;37.85;;;;;;;;;;10183704;28;20371;-75
2024/01/13 04:22:19;;;;;;;48.35;38.13;;;;;;;;;;10170601;28;20095;-73
2024/01/13 04:27:11;;;;;;;43.25;37.05;;;;;;;;;;10145256;28;20052;-75
2024/01/13 04:32:03;;;;;;;53.97;39.40;;;;;;;;;;10145603;28;20364;-74
2024/01/13 04:36:55;;;;;;;48.50;36.17;;;;;;;;;;10146340;28;20136;-75
2024/01/13 04:41:48;;;;;;;51.00;40.95;;;;;;;;;;10145629;28;20408;-75
2024/01/13 04:46:40;;;;;;;49.33;38.92;;;;;;;;;;10145502;28;20052;-75
2024/01/13 04:51:32;;;;;;;50.83;38.78;;;;;;;;;;10145767;28;20037;-75
2024/01/13 04:56:24;;;;;;;48.67;38.08;;;;;;;;;;10146555;28;20414;-74
2024/01/13 05:01:16;;;;;;;50.53;39.88;;;;;;;;;;10149331;28;20463;-74
2024/01/13 05:06:08;;;;;;;45.85;36.58;;;;;;;;;;10153008;28;20032;-74
2024/01/13 05:11:00;;;;;;;53.20;40.85;;;;;;;;;;10151970;28;20111;-74
2024/01/13 05:15:52;;;;;;;59.05;46.22;;;;;;;;;;10152197;28;20048;-74
2024/01/13 05:20:44;;;;;;;57.10;40.03;;;;;;;;;;10151953;28;20036;-74
2024/01/13 05:25:36;;;;;;;48.15;38.05;;;;;;;;;;10151762;28;20087;-75
2024/01/13 05:30:32;;;;;;;83.03;73.10;;;;;;;;;;10152684;28;20045;-75
2024/01/13 05:35:25;;;;;;;56.10;41.83;;;;;;;;;;10150940;28;20058;-75
2024/01/13 05:40:16;;;;;;;60.80;50.30;;;;;;;;;;10152855;28;20044;-74
2024/01/13 05:45:09;;;;;;;56.63;43.28;;;;;;;;;;10151912;28;20102;-74
2024/01/13 05:50:01;;;;;;;55.65;42.38;;;;;;;;;;10151327;28;20045;-74
2024/01/13 05:54:53;;;;;;;48.78;39.83;;;;;;;;;;10150966;28;20396;-74
2024/01/13 05:59:45;;;;;;;53.35;42.15;;;;;;;;;;10164862;28;20050;-74
2024/01/13 06:04:37;;;;;;;64.68;53.22;;;;;;;;;;10183351;28;20066;-74
2024/01/13 06:09:28;;;;;;;44.33;35.72;;;;;;;;;;10182950;28;20048;-74
2024/01/13 06:14:20;;;;;;;49.65;37.17;;;;;;;;;;10150089;28;20055;-74
2024/01/13 06:19:12;;;;;;;43.88;33.38;;;;;;;;;;10156131;28;20040;-74
2024/01/13 06:24:04;;;;;;;49.70;35.42;;;;;;;;;;10184894;28;20040;-74
2024/01/13 06:28:56;;;;;;;44.45;34.95;;;;;;;;;;10183049;28;20044;-73
2024/01/13 06:33:48;;;;;;;52.47;39.60;;;;;;;;;;10181335;28;20051;-74
2024/01/13 06:38:40;;;;;;;56.67;41.17;;;;;;;;;;10184397;28;20159;-73
2024/01/13 06:43:32;;;;;;;66.78;47.67;;;;;;;;;;10184289;28;20386;-72
2024/01/13 06:48:24;;;;;;;64.05;48.72;;;;;;;;;;10186731;28;20442;-73
2024/01/13 06:53:16;;;;;;;69.00;46.40;;;;;;;;;;10186335;28;20079;-72
2024/01/13 06:58:08;;;;;;;71.15;50.05;;;;;;;;;;10185000;28;20512;-72
2024/01/13 07:03:00;;;;;;;73.72;51.83;;;;;;;;;;10186107;28;20051;-72
2024/01/13 07:07:52;;;;;;;69.00;51.17;;;;;;;;;;10185801;28;20071;-72
2024/01/13 07:12:47;;;;;;;76.05;54.60;;;;;;;;;;10184621;28;20051;-72
2024/01/13 07:17:38;;;;;;;68.13;48.10;;;;;;;;;;10185190;28;20054;-72
2024/01/13 07:22:31;;;;;;;89.45;61.72;;;;;;;;;;10185329;28;20048;-72
2024/01/13 07:27:22;;;;;;;84.35;52.83;;;;;;;;;;10183632;28;20113;-72
2024/01/13 07:32:15;;;;;;;53.60;37.63;;;;;;;;;;10184082;28;20067;-72
2024/01/13 07:37:06;;;;;;;101.45;59.65;;;;;;;;;;10183487;28;20098;-73
2024/01/13 07:41:58;;;;;;;53.50;38.97;;;;;;;;;;10183747;28;20048;-73
2024/01/13 07:46:50;;;;;;;155.52;89.93;;;;;;;;;;10184441;28;20496;-72
2024/01/13 07:51:43;;;;;;;77.68;50.03;;;;;;;;;;10184320;28;20040;-72
2024/01/13 07:56:36;;;;;;;102.40;65.78;;;;;;;;;;10183355;28;20093;-73
2024/01/13 08:01:28;;;;;;;48.10;37.92;;;;;;;;;;10182527;28;20044;-73
2024/01/13 08:06:29;;;;;;;48.25;34.88;;;;;;;;;;10182891;28;20066;-70
2024/01/13 08:11:22;;;;;;;292.67;159.45;;;;;;;;;;10143928;28;20128;-72
2024/01/13 08:16:29;;;;;;;90.43;66.18;;;;;;;;;;10159102;28;20044;-71
2024/01/13 08:21:21;;;;;;;73.88;54.40;;;;;;;;;;10182387;28;20786;-72
2024/01/13 08:26:30;;;;;;;63.58;48.22;;;;;;;;;;10182698;28;20036;-73
2024/01/13 08:31:22;;;;;;;55.28;43.42;;;;;;;;;;10183121;28;20518;-73
2024/01/13 08:36:28;;;;;;;56.35;42.22;;;;;;;;;;10181971;28;20040;-73
2024/01/13 08:41:20;;;;;;;60.10;46.30;;;;;;;;;;10182195;28;20127;-73
2024/01/13 08:46:24;;;;;;;61.97;46.42;;;;;;;;;;10181530;28;20056;-72
2024/01/13 08:51:17;;;;;;;61.15;47.72;;;;;;;;;;10182415;28;20051;-72
2024/01/13 08:56:23;;;;;;;66.35;48.53;;;;;;;;;;10181696;28;20059;-72
2024/01/13 09:01:15;;;;;;;65.45;47.28;;;;;;;;;;10183362;28;20044;-72
2024/01/13 09:06:23;;;;;;;68.47;51.97;;;;;;;;;;10182852;28;20393;-73
2024/01/13 09:11:15;;;;;;;58.40;45.05;;;;;;;;;;10181959;28;20040;-70
2024/01/13 09:16:24;;;;;;;61.65;48.78;;;;;;;;;;10182379;28;20428;-72
2024/01/13 09:21:17;;;;;;;62.97;48.13;;;;;;;;;;10182028;28;20474;-71
2024/01/13 09:26:29;;;;;;;63.08;50.13;;;;;;;;;;10182307;28;20047;-73
2024/01/13 09:31:21;;;;;;;58.47;45.55;;;;;;;;;;10183309;28;20078;-72
2024/01/13 09:36:28;;;;;;;61.17;44.40;;;;;;;;;;10181300;28;20046;-72
2024/01/13 09:41:21;;;;;;;62.20;47.58;;;;;;;;;;10181714;28;20044;-72
2024/01/13 09:46:28;;;;;;;61.30;46.50;;;;;;;;;;10180008;28;20048;-72
2024/01/13 09:51:22;;;;;;;55.22;44.78;;;;;;;;;;10188886;28;20051;-72
2024/01/13 09:56:29;;;;;;;59.33;44.00;;;;;;;;;;10189147;28;20355;-72
2024/01/13 10:01:21;;;;;;;54.85;43.42;;;;;;;;;;10187889;28;20051;-73
2024/01/13 10:06:25;;;;;;;57.97;43.55;;;;;;;;;;10165210;28;20071;-73
2024/01/13 10:11:17;;;;;;;65.00;50.72;;;;;;;;;;10186149;28;20347;-72
2024/01/13 10:16:22;;;;;;;61.03;47.50;;;;;;;;;;10187673;28;20051;-73
2024/01/13 10:21:14;;;;;;;61.63;47.22;;;;;;;;;;10187500;28;20036;-70
2024/01/13 10:26:10;;;;;;;68.72;51.58;;;;;;;;;;10187861;28;20036;-72
2024/01/13 10:31:02;;;;;;;68.72;50.05;;;;;;;;;;10187396;28;20066;-71
2024/01/13 10:35:54;;;;;;;73.50;56.85;;;;;;;;;;10186380;28;20051;-72
2024/01/13 10:40:46;;;;;;;64.60;49.22;;;;;;;;;;10186714;28;20097;-71
2024/01/13 10:45:43;;;;;;;79.28;57.38;;;;;;;;;;10187487;28;20040;-71
2024/01/13 10:50:37;;;;;;;73.53;55.30;;;;;;;;;;10183802;28;20066;-70
2024/01/13 10:55:30;;;;;;;65.20;48.90;;;;;;;;;;10183925;28;20082;-69
2024/01/13 11:00:24;;;;;;;64.28;52.53;;;;;;;;;;10195259;28;20075;-69
2024/01/13 11:05:16;;;;;;;63.10;50.05;;;;;;;;;;10196784;28;20048;-69
2024/01/13 11:10:14;;;;;;;65.88;50.55;;;;;;;;;;10188783;28;20211;-69
2024/01/13 11:15:26;;;;;;;68.67;51.63;;;;;;;;;;10197911;28;20048;-69
2024/01/13 11:20:19;;;;;;;72.35;51.95;;;;;;;;;;10180512;28;20438;-68
2024/01/13 11:25:24;;;;;;;60.25;46.67;;;;;;;;;;10179694;28;20122;-68
2024/01/13 11:30:28;;;;;;;65.05;48.50;;;;;;;;;;10182582;28;20032;-69
2024/01/13 11:35:20;;;;;;;62.20;48.33;;;;;;;;;;10180850;28;20046;-68
2024/01/13 11:40:12;;;;;;;63.85;46.33;;;;;;;;;;10182404;28;20036;-68
2024/01/13 11:45:08;;;;;;;59.88;44.88;;;;;;;;;;10197642;28;20135;-69
2024/01/13 11:50:00;;;;;;;59.88;43.60;;;;;;;;;;10180725;28;20043;-69
2024/01/13 11:54:53;;;;;;;60.10;45.65;;;;;;;;;;10194586;28;20044;-68
2024/01/13 11:59:46;;;;;;;56.25;43.60;;;;;;;;;;10196998;28;20046;-68
2024/01/13 12:04:41;;;;;;;51.00;39.83;;;;;;;;;;10176465;28;20458;-68
2024/01/13 12:09:33;;;;;;;50.78;42.00;;;;;;;;;;10193171;28;20043;-68
2024/01/13 12:14:29;;;;;;;55.35;41.33;;;;;;;;;;10177197;28;20032;-69
2024/01/13 12:19:23;;;;;;;48.92;39.13;;;;;;;;;;10174889;28;20140;-68
2024/01/13 12:24:15;;;;;;;47.65;38.22;;;;;;;;;;10179675;28;20036;-71
2024/01/13 12:29:08;;;;;;;49.03;37.95;;;;;;;;;;10179040;28;20101;-69
2024/01/13 12:34:11;;;;;;;53.53;41.30;;;;;;;;;;10197511;28;20039;-68
2024/01/13 12:39:03;;;;;;;52.50;42.70;;;;;;;;;;10191676;28;20631;-69
2024/01/13 12:43:55;;;;;;;44.55;38.03;;;;;;;;;;10175889;28;20052;-69
2024/01/13 12:48:47;;;;;;;48.75;37.92;;;;;;;;;;10179161;28;20043;-68
2024/01/13 12:53:45;;;;;;;50.25;38.92;;;;;;;;;;10175709;28;20044;-68
2024/01/13 12:58:37;;;;;;;51.63;41.20;;;;;;;;;;10174277;28;20059;-69
2024/01/13 13:03:29;;;;;;;56.17;42.03;;;;;;;;;;10166679;28;20123;-69
2024/01/13 13:08:21;;;;;;;52.05;39.58;;;;;;;;;;10166157;28;20040;-68
2024/01/13 13:13:16;;;;;;;52.28;41.08;;;;;;;;;;10168710;28;20180;-69
2024/01/13 13:18:08;;;;;;;54.97;42.83;;;;;;;;;;10168144;28;20048;-68
2024/01/13 13:23:00;;;;;;;61.03;39.95;;;;;;;;;;10175851;28;20386;-68
2024/01/13 13:27:53;;;;;;;52.47;40.92;;;;;;;;;;10184283;28;20040;-68
2024/01/13 13:32:45;;;;;;;48.83;38.92;;;;;;;;;;10174575;28;20048;-68
2024/01/13 13:37:37;;;;;;;48.88;41.47;;;;;;;;;;10175465;28;20466;-69
2024/01/13 13:42:30;;;;;;;55.00;41.30;;;;;;;;;;10173036;28;20481;-68
2024/01/13 13:47:21;;;;;;;46.75;36.65;;;;;;;;;;10175345;28;20053;-69
2024/01/13 13:52:13;;;;;;;43.47;35.13;;;;;;;;;;10177838;28;20041;-68
2024/01/13 13:57:05;;;;;;;46.00;36.60;;;;;;;;;;10177525;28;20047;-68
2024/01/13 14:01:57;;;;;;;46.15;36.35;;;;;;;;;;10188679;28;20041;-68
2024/01/13 14:06:49;;;;;;;47.97;34.95;;;;;;;;;;10172287;28;20719;-69
2024/01/13 14:11:41;;;;;;;48.75;36.00;;;;;;;;;;10187651;28;20047;-68
2024/01/13 14:16:33;;;;;;;44.72;36.15;;;;;;;;;;10173932;28;20094;-68
2024/01/13 14:21:25;;;;;;;44.38;33.35;;;;;;;;;;10174503;28;20363;-68
2024/01/13 14:26:18;;;;;;;44.08;34.75;;;;;;;;;;10175728;28;20040;-68
2024/01/13 14:31:11;;;;;;;43.05;34.47;;;;;;;;;;10176746;28;20434;-68
2024/01/13 14:36:07;;;;;;;42.20;32.05;;;;;;;;;;10173933;28;20063;-70
2024/01/13 14:40:59;;;;;;;47.55;36.40;;;;;;;;;;10173950;28;20036;-70
2024/01/13 14:45:52;;;;;;;41.60;31.80;;;;;;;;;;10178597;28;20470;-69
2024/01/13 14:50:44;;;;;;;44.08;35.28;;;;;;;;;;10172796;28;20143;-66
2024/01/13 14:55:36;;;;;;;39.83;32.28;;;;;;;;;;10174869;28;20045;-69
2024/01/13 15:00:28;;;;;;;45.38;35.47;;;;;;;;;;10174405;28;20122;-67
2024/01/13 15:05:21;;;;;;;45.40;35.58;;;;;;;;;;10176419;28;20041;-67
2024/01/13 15:10:13;;;;;;;37.40;29.35;;;;;;;;;;10176344;28;20048;-66
2024/01/13 15:15:05;;;;;;;39.53;32.40;;;;;;;;;;10182449;28;20071;-67
2024/01/13 15:20:10;;;;;;;37.85;31.60;;;;;;;;;;10183723;28;20040;-67
2024/01/13 15:25:02;;;;;;;80.65;64.93;;;;;;;;;;10184045;28;20048;-67
2024/01/13 15:30:08;;;;;;;50.00;39.15;;;;;;;;;;10184143;28;20634;-67
2024/01/13 15:35:01;;;;;;;51.40;37.85;;;;;;;;;;10184308;28;20044;-67
2024/01/13 15:40:05;;;;;;;93.47;70.53;;;;;;;;;;10183580;28;20470;-70
2024/01/13 15:44:59;;;;;;;60.47;45.67;;;;;;;;;;10182523;28;20109;-68
2024/01/13 15:50:03;;;;;;;76.82;61.88;;;;;;;;;;10182554;28;20040;-67
2024/01/13 15:54:56;;;;;;;66.10;52.33;;;;;;;;;;10183526;28;20139;-68
2024/01/13 16:00:02;;;;;;;78.07;63.35;;;;;;;;;;10181772;28;20176;-68
2024/01/13 16:05:02;;;;;;;58.75;46.65;;;;;;;;;;10176916;28;20051;-68
2024/01/13 16:10:06;;;;;;;78.05;56.80;;;;;;;;;;10173527;28;20044;-67
2024/01/13 16:14:58;;;;;;;84.80;53.20;;;;;;;;;;10174613;28;20044;-69
2024/01/13 16:20:10;;;;;;;57.40;42.13;;;;;;;;;;10175737;28;20040;-68
2024/01/13 16:25:04;;;;;;;84.10;58.83;;;;;;;;;;10172307;28;20058;-69
2024/01/13 16:30:01;;;;;;;124.10;91.40;;;;;;;;;;10177756;28;20090;-68
2024/01/13 16:34:53;;;;;;;53.22;45.65;;;;;;;;;;10175826;28;20119;-68
2024/01/13 16:39:45;;;;;;;63.28;41.40;;;;;;;;;;10176073;28;20075;-68
2024/01/13 16:44:37;;;;;;;55.85;41.60;;;;;;;;;;10172332;28;20074;-68
2024/01/13 16:49:28;;;;;;;40.70;33.60;;;;;;;;;;10176107;28;20101;-69
2024/01/13 16:54:21;;;;;;;50.38;39.20;;;;;;;;;;10170899;28;20142;-67
2024/01/13 16:59:13;;;;;;;41.53;32.15;;;;;;;;;;10175500;28;20048;-68
2024/01/13 17:04:05;;;;;;;45.58;32.90;;;;;;;;;;10181786;28;20048;-68
2024/01/13 17:08:58;;;;;;;48.95;38.88;;;;;;;;;;10178053;28;20091;-68
2024/01/13 17:13:51;;;;;;;55.50;41.47;;;;;;;;;;10197197;28;20347;-69
2024/01/13 17:18:45;;;;;;;40.22;31.35;;;;;;;;;;10180250;28;20138;-68
2024/01/13 17:23:38;;;;;;;41.13;30.70;;;;;;;;;;10180249;28;20036;-68
2024/01/13 17:28:31;;;;;;;44.65;33.85;;;;;;;;;;10180740;28;20074;-69
2024/01/13 17:33:23;;;;;;;46.97;35.65;;;;;;;;;;10179867;28;20106;-68
2024/01/13 17:38:16;;;;;;;45.33;38.67;;;;;;;;;;10179253;28;20063;-69
2024/01/13 17:43:09;;;;;;;44.55;36.97;;;;;;;;;;10178106;28;20139;-69
2024/01/13 17:48:01;;;;;;;47.25;37.65;;;;;;;;;;10178899;28;20055;-69
2024/01/13 17:52:53;;;;;;;42.35;32.35;;;;;;;;;;10177312;28;20044;-68
2024/01/13 17:57:46;;;;;;;44.63;33.30;;;;;;;;;;10176129;28;20040;-68
2024/01/13 18:02:38;;;;;;;43.50;35.10;;;;;;;;;;10177387;28;20115;-68
2024/01/13 18:07:32;;;;;;;41.55;32.03;;;;;;;;;;10169759;28;20037;-68
2024/01/13 18:12:25;;;;;;;83.43;61.00;;;;;;;;;;10173943;28;20036;-69
2024/01/13 18:17:16;;;;;;;140.73;99.50;;;;;;;;;;10182824;28;20373;-69
2024/01/13 18:22:09;;;;;;;65.70;47.70;;;;;;;;;;10181883;28;20482;-68
2024/01/13 18:27:01;;;;;;;58.90;41.10;;;;;;;;;;10179700;28;20484;-68
2024/01/13 18:31:53;;;;;;;74.05;59.80;;;;;;;;;;10178406;28;20089;-68
2024/01/13 18:36:45;;;;;;;63.15;45.15;;;;;;;;;;10181337;28;20039;-68
2024/01/13 18:41:37;;;;;;;62.58;45.97;;;;;;;;;;10182718;28;20040;-68
2024/01/13 18:46:29;;;;;;;97.45;68.82;;;;;;;;;;10184735;28;20074;-68
2024/01/13 18:51:21;;;;;;;67.75;48.17;;;;;;;;;;10185631;28;20374;-69
2024/01/13 18:56:13;;;;;;;53.97;39.75;;;;;;;;;;10185630;28;20036;-68
2024/01/13 19:01:05;;;;;;;55.63;39.03;;;;;;;;;;10185406;28;20474;-69
2024/01/13 19:05:57;;;;;;;87.93;57.95;;;;;;;;;;10183537;28;20040;-68
2024/01/13 19:10:48;;;;;;;66.18;47.28;;;;;;;;;;10184462;28;20052;-68
2024/01/13 19:15:40;;;;;;;57.70;40.50;;;;;;;;;;10184922;28;20082;-68
2024/01/13 19:20:32;;;;;;;88.85;60.83;;;;;;;;;;10184224;28;20300;-68
2024/01/13 19:25:24;;;;;;;99.90;65.45;;;;;;;;;;10184755;28;20535;-68
2024/01/13 19:30:16;;;;;;;70.03;48.22;;;;;;;;;;10184081;28;20036;-69
2024/01/13 19:35:08;;;;;;;71.78;51.28;;;;;;;;;;10184290;28;20087;-68
2024/01/13 19:40:00;;;;;;;87.28;59.08;;;;;;;;;;10183299;28;20051;-69
2024/01/13 19:44:53;;;;;;;62.35;44.03;;;;;;;;;;10183386;28;20070;-69
2024/01/13 19:49:47;;;;;;;54.67;41.50;;;;;;;;;;10183395;28;20071;-68
2024/01/13 19:54:42;;;;;;;64.97;45.55;;;;;;;;;;10183982;28;20071;-69
2024/01/13 19:59:34;;;;;;;78.32;54.42;;;;;;;;;;10181753;28;20489;-69
2024/01/13 20:04:26;;;;;;;55.47;38.40;;;;;;;;;;10182552;28;20458;-69
2024/01/13 20:09:18;;;;;;;86.22;52.75;;;;;;;;;;10182980;28;20040;-69
2024/01/13 20:14:10;;;;;;;64.68;40.72;;;;;;;;;;10182289;28;20362;-68
2024/01/13 20:19:03;;;;;;;107.28;61.15;;;;;;;;;;10182133;28;20093;-69
2024/01/13 20:23:55;;;;;;;95.03;57.47;;;;;;;;;;10182859;28;20490;-69
2024/01/13 20:28:49;;;;;;;80.22;53.35;;;;;;;;;;10181161;28;20639;-68
2024/01/13 20:33:41;;;;;;;51.47;36.67;;;;;;;;;;10181171;28;20044;-69
2024/01/13 20:38:33;;;;;;;52.13;38.60;;;;;;;;;;10181671;28;20100;-71
2024/01/13 20:43:25;;;;;;;45.17;35.50;;;;;;;;;;10180643;28;21297;-69
2024/01/13 20:48:17;;;;;;;37.90;29.58;;;;;;;;;;10181385;28;20490;-69
2024/01/13 20:53:09;;;;;;;37.03;29.27;;;;;;;;;;10180330;28;20066;-70
2024/01/13 20:58:04;;;;;;;39.45;29.48;;;;;;;;;;10174570;28;20076;-70
2024/01/13 21:02:56;;;;;;;38.08;29.90;;;;;;;;;;10172533;28;20044;-70
2024/01/13 21:07:48;;;;;;;31.20;24.75;;;;;;;;;;10169506;28;20446;-72
2024/01/13 21:12:40;;;;;;;38.67;28.27;;;;;;;;;;10171415;28;20098;-71
2024/01/13 21:17:34;;;;;;;43.30;32.25;;;;;;;;;;10172128;28;20091;-70
2024/01/13 21:22:26;;;;;;;47.00;33.92;;;;;;;;;;10175409;28;20066;-72
2024/01/13 21:27:19;;;;;;;48.42;34.72;;;;;;;;;;10174370;28;20144;-72
2024/01/13 21:32:11;;;;;;;40.05;30.20;;;;;;;;;;10170822;28;20044;-70
2024/01/13 21:37:03;;;;;;;40.40;29.17;;;;;;;;;;10170649;28;20052;-71
2024/01/13 21:41:55;;;;;;;97.95;63.33;;;;;;;;;;10172156;28;20080;-70
2024/01/13 21:46:49;;;;;;;54.28;37.08;;;;;;;;;;10176136;28;20052;-70
2024/01/13 21:51:43;;;;;;;43.65;31.40;;;;;;;;;;10181392;28;20374;-72
2024/01/13 21:56:35;;;;;;;48.58;31.67;;;;;;;;;;10173863;28;20677;-71
2024/01/13 22:01:27;;;;;;;39.53;28.90;;;;;;;;;;10176675;28;20036;-70
2024/01/13 22:06:19;;;;;;;34.53;25.70;;;;;;;;;;10176493;28;20703;-71
2024/01/13 22:11:11;;;;;;;37.38;25.88;;;;;;;;;;10182833;28;20078;-71
2024/01/13 22:16:03;;;;;;;30.17;23.45;;;;;;;;;;10176542;28;20047;-71
2024/01/13 22:20:56;;;;;;;53.92;29.05;;;;;;;;;;10178515;28;20062;-71
2024/01/13 22:25:48;;;;;;;33.20;21.42;;;;;;;;;;10176804;28;20801;-71
2024/01/13 22:30:40;;;;;;;24.23;19.48;;;;;;;;;;10175236;28;20057;-71
2024/01/13 22:35:32;;;;;;;25.92;22.42;;;;;;;;;;10178502;28;20496;-71
2024/01/13 22:40:24;;;;;;;22.95;19.17;;;;;;;;;;10175980;28;20189;-71
2024/01/13 22:45:16;;;;;;;30.58;25.77;;;;;;;;;;10177723;28;20090;-71
2024/01/13 22:50:09;;;;;;;16.50;13.63;;;;;;;;;;10175794;28;20076;-71
2024/01/13 22:55:01;;;;;;;15.60;13.38;;;;;;;;;;10175607;28;20460;-71
2024/01/13 22:59:56;;;;;;;18.38;13.82;;;;;;;;;;10176383;28;20048;-71
2024/01/13 23:04:48;;;;;;;14.80;12.13;;;;;;;;;;10177571;28;20055;-71
2024/01/13 23:09:40;;;;;;;12.27;10.40;;;;;;;;;;10176790;28;20058;-74
2024/01/13 23:14:32;;;;;;;12.25;10.27;;;;;;;;;;10172603;28;20075;-74
2024/01/13 23:19:26;;;;;;;9.95;8.75;;;;;;;;;;10194130;28;20040;-75
2024/01/13 23:24:19;;;;;;;12.35;11.00;;;;;;;;;;10174055;28;20379;-74
2024/01/13 23:29:11;;;;;;;12.45;9.55;;;;;;;;;;10176694;28;20059;-74
2024/01/13 23:34:03;;;;;;;14.02;10.80;;;;;;;;;;10180365;28;20047;-74
2024/01/13 23:38:55;;;;;;;16.58;12.70;;;;;;;;;;10182610;28;20176;-75
2024/01/13 23:43:48;;;;;;;16.48;12.55;;;;;;;;;;10183208;28;20097;-74
2024/01/13 23:48:41;;;;;;;14.93;12.35;;;;;;;;;;10181782;28;20134;-74
2024/01/13 23:53:33;;;;;;;17.02;13.30;;;;;;;;;;10183701;28;20036;-74
2024/01/13 23:58:25;;;;;;;18.08;12.93;;;;;;;;;;10182926;28;20044;-74
